createdAt,value
2024-03-12T00:00:42.777Z,99753.59
2024-03-12T00:03:10.132Z,99744.47
2024-03-12T00:05:37.981Z,99748.81
2024-03-12T00:08:05.715Z,99749.34
2024-03-12T00:10:32.970Z,99741.69
2024-03-12T00:13:00.442Z,99741.34
2024-03-12T00:15:28.053Z,99742.41
2024-03-12T00:17:55.948Z,99738.41
2024-03-12T00:20:24.150Z,99735.50
2024-03-12T00:22:51.832Z,99737.16
2024-03-12T00:25:19.291Z,99731.00
2024-03-12T00:27:47.061Z,99727.28
2024-03-12T00:30:15.503Z,99729.44
2024-03-12T00:32:42.864Z,99718.19
2024-03-12T00:35:11.014Z,99715.81
2024-03-12T00:37:38.480Z,99707.03
2024-03-12T00:40:07.163Z,99695.81
2024-03-12T00:42:34.741Z,99691.06
2024-03-12T00:45:01.971Z,99689.16
2024-03-12T00:47:29.222Z,99686.00
2024-03-12T00:49:58.515Z,99687.06
2024-03-12T00:52:27.122Z,99675.91
2024-03-12T00:54:54.523Z,99674.00
2024-03-12T00:57:21.817Z,99678.03
2024-03-12T00:59:49.133Z,99678.03
2024-03-12T01:02:16.442Z,99675.94
2024-03-12T01:04:43.777Z,99663.38
2024-03-12T01:07:11.113Z,99668.75
2024-03-12T01:09:38.366Z,99661.53
2024-03-12T01:12:09.246Z,99645.56
2024-03-12T01:14:37.929Z,99639.13
2024-03-12T01:17:05.638Z,99638.09
2024-03-12T01:19:34.306Z,99645.59
2024-03-12T01:22:01.721Z,99638.13
2024-03-12T01:24:29.340Z,99627.19
2024-03-12T01:26:56.870Z,99627.38
2024-03-12T01:29:24.156Z,99633.06
2024-03-12T01:31:51.427Z,99643.97
2024-03-12T01:34:20.050Z,99634.66
2024-03-12T01:36:47.477Z,99631.75
2024-03-12T01:39:14.992Z,99627.75
2024-03-12T01:41:42.194Z,99617.34
2024-03-12T01:44:09.667Z,99625.31
2024-03-12T01:46:38.044Z,99625.88
2024-03-12T01:49:06.220Z,99625.59
2024-03-12T01:51:34.299Z,99618.41
2024-03-12T01:54:01.747Z,99619.72
2024-03-12T01:56:28.998Z,99626.94
2024-03-12T01:58:57.288Z,99616.81
2024-03-12T02:01:25.429Z,99615.75
2024-03-12T02:03:53.046Z,99623.25
2024-03-12T02:06:20.859Z,99622.13
2024-03-12T02:08:52.942Z,99625.63
2024-03-12T02:11:20.344Z,99615.25
2024-03-12T02:13:47.685Z,99617.66
2024-03-12T02:16:15.131Z,99612.06
2024-03-12T02:18:42.458Z,99612.59
2024-03-12T02:21:09.752Z,99612.59
2024-03-12T02:23:41.201Z,99610.75
2024-03-12T02:26:08.460Z,99610.44
2024-03-12T02:28:35.712Z,99599.28
2024-03-12T02:31:03.168Z,99589.16
2024-03-12T02:33:30.621Z,99591.84
2024-03-12T02:35:58.073Z,99590.22
2024-03-12T02:38:25.650Z,99576.97
2024-03-12T02:40:53.148Z,99575.91
2024-03-12T02:43:20.397Z,99571.13
2024-03-12T02:45:47.777Z,99571.34
2024-03-12T02:48:15.128Z,99569.50
2024-03-12T02:50:42.745Z,99572.44
2024-03-12T02:53:10.117Z,99585.19
2024-03-12T02:55:37.584Z,99587.63
2024-03-12T02:58:05.237Z,99587.06
2024-03-12T03:00:33.189Z,99573.53
2024-03-12T03:03:00.800Z,99584.69
2024-03-12T03:05:28.173Z,99601.44
2024-03-12T03:07:55.600Z,99596.63
2024-03-12T03:10:23.067Z,99586.50
2024-03-12T03:12:50.469Z,99594.78
2024-03-12T03:15:17.828Z,99591.31
2024-03-12T03:17:45.420Z,99586.75
2024-03-12T03:20:13.916Z,99587.88
2024-03-12T03:22:41.692Z,99595.56
2024-03-12T03:25:10.583Z,99584.91
2024-03-12T03:27:37.957Z,99588.63
2024-03-12T03:30:07.264Z,99584.91
2024-03-12T03:32:34.761Z,99578.50
2024-03-12T03:35:03.423Z,99586.22
2024-03-12T03:37:31.497Z,99595.84
2024-03-12T03:39:58.802Z,99595.53
2024-03-12T03:42:26.470Z,99590.50
2024-03-12T03:44:53.788Z,99591.31
2024-03-12T03:47:21.125Z,99583.81
2024-03-12T03:49:48.474Z,99582.25
2024-03-12T03:52:15.800Z,99591.84
2024-03-12T03:54:43.172Z,99593.44
2024-03-12T03:57:10.493Z,99591.84
2024-03-12T03:59:37.781Z,99594.00
2024-03-12T04:02:05.200Z,99591.63
2024-03-12T04:04:32.792Z,99587.84
2024-03-12T04:07:00.142Z,99590.22
2024-03-12T04:09:27.466Z,99580.69
2024-03-12T04:11:54.825Z,99582.03
2024-03-12T04:14:22.074Z,99585.19
2024-03-12T04:16:49.370Z,99580.91
2024-03-12T04:19:16.918Z,99590.75
2024-03-12T04:21:44.551Z,99594.22
2024-03-12T04:24:12.596Z,99595.56
2024-03-12T04:26:39.840Z,99595.31
2024-03-12T04:29:07.100Z,99596.84
2024-03-12T04:31:35.418Z,99608.00
2024-03-12T04:34:02.908Z,99613.16
2024-03-12T04:36:30.357Z,99616.06
2024-03-12T04:38:57.617Z,99617.41
2024-03-12T04:41:24.934Z,99618.75
2024-03-12T04:43:52.179Z,99625.41
2024-03-12T04:46:19.817Z,99621.13
2024-03-12T04:48:47.273Z,99612.63
2024-03-12T04:51:14.776Z,99619.53
2024-03-12T04:53:42.057Z,99633.38
2024-03-12T04:56:09.361Z,99652.53
2024-03-12T04:58:36.734Z,99637.09
2024-03-12T05:01:04.395Z,99631.50
2024-03-12T05:03:31.780Z,99631.28
2024-03-12T05:05:59.176Z,99637.16
2024-03-12T05:08:26.411Z,99646.22
2024-03-12T05:10:53.717Z,99637.91
2024-03-12T05:13:21.092Z,99643.38
2024-03-12T05:15:48.467Z,99632.38
2024-03-12T05:18:15.894Z,99628.25
2024-03-12T05:20:43.236Z,99621.88
2024-03-12T05:23:10.496Z,99636.50
2024-03-12T05:25:37.800Z,99636.06
2024-03-12T05:28:06.662Z,99648.94
2024-03-12T05:30:34.261Z,99639.44
2024-03-12T05:33:01.601Z,99644.91
2024-03-12T05:35:29.477Z,99653.72
2024-03-12T05:37:57.588Z,99659.47
2024-03-12T05:40:24.962Z,99655.03
2024-03-12T05:42:52.221Z,99658.59
2024-03-12T05:45:19.565Z,99661.16
2024-03-12T05:47:46.900Z,99659.84
2024-03-12T05:50:14.270Z,99650.00
2024-03-12T05:52:41.642Z,99654.81
2024-03-12T05:55:09.098Z,99648.81
2024-03-12T05:57:36.453Z,99651.41
2024-03-12T06:00:04.599Z,99662.88
2024-03-12T06:02:31.954Z,99663.38
2024-03-12T06:04:59.229Z,99661.53
2024-03-12T06:07:26.645Z,99664.81
2024-03-12T06:09:54.954Z,99664.31
2024-03-12T06:12:22.648Z,99663.47
2024-03-12T06:14:50.666Z,99662.41
2024-03-12T06:17:18.081Z,99662.44
2024-03-12T06:19:45.391Z,99660.25
2024-03-12T06:22:12.745Z,99659.69
2024-03-12T06:24:40.063Z,99659.75
2024-03-12T06:27:07.700Z,99656.53
2024-03-12T06:29:35.490Z,99655.50
2024-03-12T06:32:02.779Z,99658.09
2024-03-12T06:34:30.159Z,99656.81
2024-03-12T06:36:57.448Z,99652.69
2024-03-12T06:39:26.473Z,99650.75
2024-03-12T06:41:53.748Z,99661.28
2024-03-12T06:44:21.001Z,99668.44
2024-03-12T06:46:48.286Z,99663.88
2024-03-12T06:49:15.641Z,99651.03
2024-03-12T06:51:45.699Z,99655.22
2024-03-12T06:54:13.055Z,99652.94
2024-03-12T06:56:40.583Z,99661.31
2024-03-12T06:59:07.774Z,99663.53
2024-03-12T07:01:35.072Z,99661.84
2024-03-12T07:04:02.482Z,99663.97
2024-03-12T07:06:29.867Z,99657.75
2024-03-12T07:08:57.190Z,99657.94
2024-03-12T07:11:24.481Z,99659.31
2024-03-12T07:13:51.756Z,99664.63
2024-03-12T07:16:19.263Z,99663.16
2024-03-12T07:18:46.898Z,99669.19
2024-03-12T07:21:14.338Z,99669.72
2024-03-12T07:23:41.741Z,99675.41
2024-03-12T07:26:09.054Z,99675.91
2024-03-12T07:28:36.490Z,99679.19
2024-03-12T07:31:04.233Z,99684.59
2024-03-12T07:33:31.716Z,99688.38
2024-03-12T07:35:58.914Z,99691.97
2024-03-12T07:38:26.164Z,99686.66
2024-03-12T07:40:53.503Z,99679.19
2024-03-12T07:43:20.927Z,99689.94
2024-03-12T07:45:48.995Z,99698.31
2024-03-12T07:48:16.521Z,99698.44
2024-03-12T07:50:44.183Z,99696.88
2024-03-12T07:53:11.467Z,99696.53
2024-03-12T07:55:38.794Z,99690.34
2024-03-12T07:58:06.222Z,99689.66
2024-03-12T08:00:33.700Z,99693.44
2024-03-12T08:03:01.076Z,99696.09
2024-03-12T08:05:30.260Z,99697.13
2024-03-12T08:07:58.739Z,99696.44
2024-03-12T08:10:26.032Z,99695.81
2024-03-12T08:12:53.453Z,99696.06
2024-03-12T08:15:20.775Z,99692.31
2024-03-12T08:17:48.385Z,99693.00
2024-03-12T08:20:15.865Z,99693.81
2024-03-12T08:22:43.095Z,99696.00
2024-03-12T08:25:11.263Z,99703.59
2024-03-12T08:27:38.847Z,99704.97
2024-03-12T08:30:08.312Z,99705.41
2024-03-12T08:32:39.896Z,99705.84
2024-03-12T08:35:07.836Z,99703.91
2024-03-12T08:37:38.511Z,99705.41
2024-03-12T08:40:07.246Z,99700.06
2024-03-12T08:42:36.044Z,99694.84
2024-03-12T08:45:07.462Z,99692.25
2024-03-12T08:47:34.818Z,99695.50
2024-03-12T08:50:02.672Z,99699.59
2024-03-12T08:52:29.998Z,99699.59
2024-03-12T08:54:57.383Z,99693.19
2024-03-12T08:57:24.824Z,99694.59
2024-03-12T08:59:52.232Z,99699.94
2024-03-12T09:02:19.571Z,99711.75
2024-03-12T09:04:46.909Z,99711.34
2024-03-12T09:07:14.447Z,99698.69
2024-03-12T09:09:41.720Z,99697.84
2024-03-12T09:12:09.027Z,99695.09
2024-03-12T09:14:36.272Z,99694.63
2024-03-12T09:17:04.066Z,99692.25
2024-03-12T09:19:31.345Z,99698.94
2024-03-12T09:21:58.861Z,99696.44
2024-03-12T09:24:26.178Z,99701.00
2024-03-12T09:26:53.550Z,99687.75
2024-03-12T09:29:21.108Z,99691.25
2024-03-12T09:31:48.328Z,99689.63
2024-03-12T09:34:15.692Z,99690.84
2024-03-12T09:36:43.112Z,99686.25
2024-03-12T09:39:10.591Z,99678.00
2024-03-12T09:41:43.527Z,99670.44
2024-03-12T09:44:12.055Z,99674.59
2024-03-12T09:46:41.604Z,99680.41
2024-03-12T09:49:11.597Z,99683.94
2024-03-12T09:51:39.245Z,99692.81
2024-03-12T09:54:06.577Z,99685.56
2024-03-12T09:56:34.199Z,99689.22
2024-03-12T09:59:01.966Z,99683.81
2024-03-12T10:01:29.323Z,99679.16
2024-03-12T10:03:56.727Z,99688.28
2024-03-12T10:06:24.001Z,99684.13
2024-03-12T10:08:56.589Z,99678.75
2024-03-12T10:11:24.836Z,99682.84
2024-03-12T10:13:56.805Z,99685.09
2024-03-12T10:16:25.106Z,99685.31
2024-03-12T10:19:06.813Z,99680.88
2024-03-12T10:21:34.138Z,99682.31
2024-03-12T10:24:10.956Z,99685.16
2024-03-12T10:26:38.299Z,99679.56
2024-03-12T10:29:10.422Z,99672.16
2024-03-12T10:31:38.048Z,99674.13
2024-03-12T10:34:08.635Z,99676.78
2024-03-12T10:36:37.185Z,99675.66
2024-03-12T10:39:04.654Z,99686.69
2024-03-12T10:41:31.993Z,99677.31
2024-03-12T10:44:08.693Z,99677.81
2024-03-12T10:46:36.930Z,99666.78
2024-03-12T10:49:06.173Z,99665.38
2024-03-12T10:51:33.584Z,99672.56
2024-03-12T10:54:01.124Z,99675.75
2024-03-12T10:56:28.516Z,99675.16
2024-03-12T10:58:56.237Z,99678.41
2024-03-12T11:01:25.267Z,99682.91
2024-03-12T11:03:57.051Z,99675.50
2024-03-12T11:06:27.066Z,99675.84
2024-03-12T11:08:56.642Z,99669.38
2024-03-12T11:11:23.976Z,99667.63
2024-03-12T11:13:51.589Z,99653.81
2024-03-12T11:16:21.000Z,99651.81
2024-03-12T11:18:48.368Z,99655.00
2024-03-12T11:21:33.791Z,99647.91
2024-03-12T11:24:01.194Z,99640.47
2024-03-12T11:28:59.631Z,99640.97
2024-03-12T11:31:35.427Z,99632.72
2024-03-12T11:34:02.849Z,99629.53
2024-03-12T11:36:43.276Z,99636.44
2024-03-12T11:39:23.976Z,99634.22
2024-03-12T11:42:12.721Z,99627.34
2024-03-12T11:44:53.001Z,99629.22
2024-03-12T11:47:26.252Z,99624.78
2024-03-12T11:49:53.560Z,99613.56
2024-03-12T11:52:24.399Z,99611.38
2024-03-12T11:54:51.740Z,99605.63
2024-03-12T11:57:25.488Z,99606.06
2024-03-12T11:59:53.052Z,99602.97
2024-03-12T12:02:20.698Z,99607.25
2024-03-12T12:04:49.382Z,99601.09
2024-03-12T12:07:16.730Z,99599.69
2024-03-12T12:09:49.733Z,99603.97
2024-03-12T12:12:17.275Z,99590.34
2024-03-12T12:14:45.894Z,99591.72
2024-03-12T12:17:13.248Z,99589.22
2024-03-12T12:19:43.163Z,99584.56
2024-03-12T12:22:10.842Z,99582.22
2024-03-12T12:24:39.089Z,99582.41
2024-03-12T12:27:06.643Z,99582.97
2024-03-12T12:29:35.045Z,99584.63
2024-03-12T12:32:02.783Z,99576.53
2024-03-12T12:34:31.163Z,99583.59
2024-03-12T12:36:59.955Z,99585.03
2024-03-12T12:39:36.144Z,99582.13
2024-03-12T12:42:10.971Z,99570.81
2024-03-12T12:44:38.333Z,99577.13
2024-03-12T12:47:05.972Z,99578.94
2024-03-12T12:49:33.264Z,99579.28
2024-03-12T12:52:00.681Z,99575.84
2024-03-12T12:54:28.288Z,99574.25
2024-03-12T12:57:00.664Z,99565.72
2024-03-12T12:59:33.904Z,99559.41
2024-03-12T13:02:16.331Z,99562.19
2024-03-12T13:04:43.804Z,99567.53
2024-03-12T13:07:11.078Z,99563.56
2024-03-12T13:09:38.428Z,99568.63
2024-03-12T13:12:06.027Z,99559.09
2024-03-12T13:14:33.415Z,99559.91
2024-03-12T13:17:01.079Z,99559.72
2024-03-12T13:19:28.797Z,99560.34
2024-03-12T13:21:56.394Z,99554.41
2024-03-12T13:24:23.990Z,99551.81
2024-03-12T13:26:51.410Z,99548.06
2024-03-12T13:29:18.755Z,99550.53
2024-03-12T13:31:46.756Z,99546.47
2024-03-12T13:34:14.304Z,99550.22
2024-03-12T13:36:42.113Z,99542.19
2024-03-12T13:39:09.488Z,99548.47
2024-03-12T13:41:36.792Z,99560.16
2024-03-12T13:44:04.119Z,99563.84
2024-03-12T13:46:31.435Z,99554.00
2024-03-12T13:49:14.759Z,99555.72
2024-03-12T13:51:42.938Z,99554.41
2024-03-12T13:54:10.545Z,99555.94
2024-03-12T13:56:38.265Z,99560.94
2024-03-12T13:59:06.074Z,99555.44
2024-03-12T14:01:34.408Z,99559.66
2024-03-12T14:04:02.086Z,99558.75
2024-03-12T14:06:29.755Z,99564.84
2024-03-12T14:08:57.041Z,99564.44
2024-03-12T14:11:24.823Z,99567.53
2024-03-12T14:13:52.304Z,99568.59
2024-03-12T14:16:22.103Z,99561.47
2024-03-12T14:18:50.325Z,99568.34
2024-03-12T14:21:17.935Z,99564.56
2024-03-12T14:23:45.581Z,99557.63
2024-03-12T14:26:12.998Z,99561.97
2024-03-12T14:28:40.239Z,99557.00
2024-03-12T14:31:08.142Z,99561.97
2024-03-12T14:33:35.734Z,99567.97
2024-03-12T14:36:03.281Z,99581.59
2024-03-12T14:38:30.539Z,99573.09
2024-03-12T14:40:57.848Z,99566.91
2024-03-12T14:43:25.152Z,99567.22
2024-03-12T14:45:52.494Z,99569.94
2024-03-12T14:48:19.764Z,99560.41
2024-03-12T14:50:47.114Z,99561.69
2024-03-12T14:53:14.524Z,99566.13
2024-03-12T14:55:41.923Z,99563.75
2024-03-12T14:58:09.311Z,99569.59
2024-03-12T15:00:36.805Z,99566.75
2024-03-12T15:03:04.322Z,99565.25
2024-03-12T15:05:31.945Z,99568.50
2024-03-12T15:07:59.368Z,99566.56
2024-03-12T15:10:26.892Z,99558.19
2024-03-12T15:12:54.320Z,99562.38
2024-03-12T15:15:21.610Z,99562.78
2024-03-12T15:17:48.878Z,99559.06
2024-03-12T15:20:16.689Z,99556.28
2024-03-12T15:22:45.378Z,99559.59
2024-03-12T15:25:13.139Z,99559.47
2024-03-12T15:27:41.127Z,99564.53
2024-03-12T15:30:08.859Z,99562.94
2024-03-12T15:32:37.076Z,99556.63
2024-03-12T15:35:08.220Z,99557.53
2024-03-12T15:37:35.668Z,99552.97
2024-03-12T15:40:03.017Z,99556.72
2024-03-12T15:42:30.469Z,99553.63
2024-03-12T15:44:57.689Z,99563.56
2024-03-12T15:47:25.062Z,99551.38
2024-03-12T15:49:52.362Z,99562.19
2024-03-12T15:52:19.610Z,99560.91
2024-03-12T15:54:48.093Z,99555.50
2024-03-12T15:57:16.145Z,99555.22
2024-03-12T15:59:44.515Z,99562.59
2024-03-12T16:02:11.940Z,99556.09
2024-03-12T16:04:39.306Z,99556.41
2024-03-12T16:07:06.781Z,99548.66
2024-03-12T16:09:34.625Z,99549.84
2024-03-12T16:12:02.057Z,99564.16
2024-03-12T16:14:29.334Z,99561.88
2024-03-12T16:16:56.594Z,99568.06
2024-03-12T16:19:24.146Z,99559.88
2024-03-12T16:21:51.569Z,99555.09
2024-03-12T16:24:18.958Z,99554.84
2024-03-12T16:26:46.384Z,99564.00
2024-03-12T16:29:13.698Z,99562.47
2024-03-12T16:31:43.918Z,99561.22
2024-03-12T16:34:11.378Z,99560.78
2024-03-12T16:36:38.946Z,99545.31
2024-03-12T16:39:06.243Z,99554.13
2024-03-12T16:41:33.640Z,99554.69
2024-03-12T16:44:00.956Z,99556.53
2024-03-12T16:46:28.302Z,99557.84
2024-03-12T16:48:55.631Z,99564.38
2024-03-12T16:51:23.123Z,99567.56
2024-03-12T16:53:50.793Z,99567.19
2024-03-12T16:56:25.588Z,99559.88
2024-03-12T16:58:54.062Z,99561.94
2024-03-12T17:01:22.030Z,99560.31
2024-03-12T17:03:49.749Z,99562.47
2024-03-12T17:06:19.113Z,99565.47
2024-03-12T17:08:46.937Z,99566.47
2024-03-12T17:11:14.413Z,99560.44
2024-03-12T17:13:41.998Z,99562.03
2024-03-12T17:16:13.566Z,99566.53
2024-03-12T17:18:41.534Z,99561.28
2024-03-12T17:21:09.239Z,99551.47
2024-03-12T17:23:36.807Z,99549.88
2024-03-12T17:26:04.720Z,99555.22
2024-03-12T17:28:32.297Z,99549.88
2024-03-12T17:30:59.754Z,99551.06
2024-03-12T17:33:27.312Z,99556.31
2024-03-12T17:35:55.001Z,99553.47
2024-03-12T17:38:23.842Z,99561.94
2024-03-12T17:40:51.535Z,99562.00
2024-03-12T17:43:19.210Z,99569.16
2024-03-12T17:45:46.776Z,99573.19
2024-03-12T17:48:25.555Z,99561.31
2024-03-12T17:50:53.106Z,99563.66
2024-03-12T17:53:20.696Z,99573.91
2024-03-12T17:55:48.268Z,99568.50
2024-03-12T17:58:17.269Z,99574.03
2024-03-12T18:00:45.234Z,99572.88
2024-03-12T18:03:13.024Z,99573.03
2024-03-12T18:05:40.440Z,99580.53
2024-03-12T18:08:18.652Z,99576.34
2024-03-12T18:10:48.605Z,99578.28
2024-03-12T18:13:16.237Z,99572.13
2024-03-12T18:15:43.530Z,99578.88
2024-03-12T18:18:10.756Z,99576.56
2024-03-12T18:20:38.220Z,99587.25
2024-03-12T18:23:05.538Z,99581.34
2024-03-12T18:25:32.944Z,99571.81
2024-03-12T18:28:00.403Z,99578.81
2024-03-12T18:30:27.846Z,99581.69
2024-03-12T18:32:55.677Z,99587.94
2024-03-12T18:35:23.422Z,99590.66
2024-03-12T18:37:50.715Z,99583.56
2024-03-12T18:40:17.982Z,99590.34
2024-03-12T18:42:45.857Z,99595.25
2024-03-12T18:45:13.538Z,99593.63
2024-03-12T18:47:41.525Z,99591.03
2024-03-12T18:50:09.648Z,99594.50
2024-03-12T18:52:40.642Z,99601.13
2024-03-12T18:55:09.457Z,99599.47
2024-03-12T18:57:38.414Z,99598.63
2024-03-12T19:00:08.648Z,99599.03
2024-03-12T19:02:39.751Z,99599.41
2024-03-12T19:05:08.886Z,99604.19
2024-03-12T19:07:36.374Z,99601.06
2024-03-12T19:10:04.890Z,99599.53
2024-03-12T19:12:42.154Z,99601.13
2024-03-12T19:15:14.348Z,99601.94
2024-03-12T19:17:43.494Z,99601.69
2024-03-12T19:20:15.533Z,99598.47
2024-03-12T19:22:47.367Z,99599.78
2024-03-12T19:25:16.380Z,99594.78
2024-03-12T19:27:46.454Z,99591.31
2024-03-12T19:30:15.472Z,99593.84
2024-03-12T19:32:42.993Z,99585.50
2024-03-12T19:35:10.772Z,99595.72
2024-03-12T19:37:39.551Z,99595.53
2024-03-12T19:40:09.046Z,99596.25
2024-03-12T19:42:36.680Z,99591.50
2024-03-12T19:45:04.486Z,99591.94
2024-03-12T19:47:32.149Z,99589.03
2024-03-12T19:49:59.615Z,99599.09
2024-03-12T19:52:27.035Z,99593.00
2024-03-12T19:54:54.309Z,99594.03
2024-03-12T19:57:21.764Z,99604.38
2024-03-12T19:59:49.096Z,99600.97
2024-03-12T20:02:16.816Z,99603.53
2024-03-12T20:04:44.055Z,99603.84
2024-03-12T20:07:11.461Z,99605.75
2024-03-12T20:09:38.743Z,99599.81
2024-03-12T20:12:06.523Z,99599.91
2024-03-12T20:14:33.704Z,99603.84
2024-03-12T20:17:01.348Z,99603.94
2024-03-12T20:19:28.803Z,99597.75
2024-03-12T20:21:56.643Z,99596.25
2024-03-12T20:24:23.946Z,99594.34
2024-03-12T20:26:51.209Z,99588.56
2024-03-12T20:29:18.507Z,99595.50
2024-03-12T20:31:45.844Z,99586.91
2024-03-12T20:34:13.069Z,99594.06
2024-03-12T20:36:40.382Z,99586.22
2024-03-12T20:39:07.625Z,99585.47
2024-03-12T20:41:34.995Z,99588.41
2024-03-12T20:44:02.578Z,99582.81
2024-03-12T20:46:29.954Z,99596.34
2024-03-12T20:48:57.347Z,99591.47
2024-03-12T20:51:26.020Z,99585.69
2024-03-12T20:53:53.343Z,99587.25
2024-03-12T20:56:20.568Z,99585.69
2024-03-12T20:58:47.785Z,99580.19
2024-03-12T21:01:15.101Z,99578.06
2024-03-12T21:03:42.412Z,99579.13
2024-03-12T21:06:09.743Z,99575.50
2024-03-12T21:08:36.902Z,99580.94
2024-03-12T21:11:04.373Z,99578.13
2024-03-12T21:13:31.571Z,99576.16
2024-03-12T21:15:59.180Z,99586.38
2024-03-12T21:18:26.403Z,99586.13
2024-03-12T21:20:53.633Z,99584.09
2024-03-12T21:23:20.842Z,99582.06
2024-03-12T21:25:48.051Z,99587.53
2024-03-12T21:28:15.480Z,99582.91
2024-03-12T21:30:42.779Z,99585.31
2024-03-12T21:33:09.974Z,99585.00
2024-03-12T21:35:37.373Z,99587.19
2024-03-12T21:38:04.731Z,99579.00
2024-03-12T21:40:32.967Z,99586.66
2024-03-12T21:43:00.286Z,99585.56
2024-03-12T21:45:27.522Z,99587.66
2024-03-12T21:47:54.879Z,99584.47
2024-03-12T21:50:22.093Z,99581.59
2024-03-12T21:52:49.667Z,99578.00
2024-03-12T21:55:17.073Z,99574.91
2024-03-12T21:57:45.108Z,99580.78
2024-03-12T22:00:13.394Z,99581.44
2024-03-12T22:02:40.805Z,99580.78
2024-03-12T22:05:08.073Z,99575.06
2024-03-12T22:07:35.689Z,99581.44
2024-03-12T22:10:03.315Z,99577.69
2024-03-12T22:12:31.018Z,99575.03
2024-03-12T22:14:58.435Z,99569.69
2024-03-12T22:17:25.724Z,99561.72
2024-03-12T22:19:52.861Z,99564.31
2024-03-12T22:22:20.271Z,99556.59
2024-03-12T22:24:47.512Z,99561.72
2024-03-12T22:27:14.992Z,99559.13
2024-03-12T22:29:42.219Z,99558.00
2024-03-12T22:32:09.489Z,99554.75
2024-03-12T22:34:37.530Z,99553.06
2024-03-12T22:37:04.785Z,99550.50
2024-03-12T22:39:32.249Z,99557.72
2024-03-12T22:41:59.816Z,99560.34
2024-03-12T22:44:27.318Z,99551.59
2024-03-12T22:46:54.860Z,99549.75
2024-03-12T22:49:22.356Z,99550.72
2024-03-12T22:51:56.488Z,99545.72
2024-03-12T22:54:24.383Z,99557.41
2024-03-12T22:56:51.871Z,99560.88
2024-03-12T22:59:19.369Z,99559.53
2024-03-12T23:01:53.379Z,99558.53
2024-03-12T23:04:20.951Z,99553.50
2024-03-12T23:06:48.463Z,99555.69
2024-03-12T23:09:15.912Z,99563.38
2024-03-12T23:11:43.331Z,99555.88
2024-03-12T23:14:10.707Z,99553.66
2024-03-12T23:16:37.877Z,99557.41
2024-03-12T23:19:06.022Z,99564.66
2024-03-12T23:21:33.283Z,99562.81
2024-03-12T23:24:00.573Z,99561.78
2024-03-12T23:26:28.097Z,99561.69
2024-03-12T23:28:55.475Z,99569.47
2024-03-12T23:31:22.841Z,99555.09
2024-03-12T23:33:50.161Z,99563.84
2024-03-12T23:36:17.441Z,99561.34
2024-03-12T23:38:44.854Z,99557.63
2024-03-12T23:41:12.120Z,99566.94
2024-03-12T23:43:39.566Z,99563.19
2024-03-12T23:46:08.221Z,99557.56
2024-03-12T23:48:36.579Z,99556.00
2024-03-12T23:51:04.056Z,99554.19
2024-03-12T23:53:31.301Z,99550.97
2024-03-12T23:55:58.626Z,99550.94
2024-03-12T23:58:26.131Z,99553.28
